Terminal Aerodrome Forecast
Issued by NWS

Home | Current Version | Previous Version | Text Only | Print | Product List | Glossary On
Versions: 1 2 3 4 5 6 7 8 9 10 11 12 13 14 15 16 17 18 19 20 21 22 23 24 25 26
000
FTUS42 KTAE 032320
TAFABY
TAF
KABY 032320Z 0400/0424 23003KT P6SM SCT070 BKN200 PROB30 0415/0421
      4SM TSRA OVC025CB
     FM042100 23006KT P6SM OVC070
      TEMPO 0421/0424 3SM TSRA OVC025CB=

USA.gov is the U.S. government's official web portal to all federal, state and local government web resources and services.